Niznij Tagil, Russia
Current Conditions -  °F | °C
As of 5:00 AM on Saturday 29 Nov 2014 (Local Time) from USSS Reporting Station
Overcast Overcast  
Wind Chill:   Ceiling: 2900
Heat Index: 19°   Visibility: 6mi
Dew Point: 16°   Wind: 11mph
Humidity: 86%   Direction: 260°W
Pressure: 30.39"   Gusts: NA
Location:  57.3°N, 60°E
Report Text: USSS 290000Z 26005MPS 9999 BKN029 OVC067 M07/M09 Q1029 7639//35TEMPO 2000 SN RMK QFE751
Loading
Personal Weather Stations






























Interactive Weather Map New forecast layout! Learn more

10-Day Weather Forecast

Advertisements
Track Severe Weather on mobile